Wamac, Illinois
Current Conditions -  °F | °C
As of 8:55 AM on Sunday 23 Nov 2014 (Local Time) from KENL Reporting Station
Broken Clouds Broken Clouds  
Wind Chill: 54°   Ceiling: 1800
Heat Index: 54°   Visibility: 10mi
Dew Point: 46°   Wind: 12mph
Humidity: 75%   Direction: 140°SE
Pressure: 29.73"   Gusts: 16mph
Location:  38.5134°N, 89.1673°W
Report Text: KENL 231455Z AUTO 14010G14KT 10SM BKN018 BKN025 12/08 A2973 RMK AO2 T01200077
Loading
Personal Weather Stations






























Interactive Weather Map New forecast layout! Learn more

10-Day Weather Forecast

Advertisements
Track Severe Weather on mobile